sensor_id;sensor_type;location;lat;lon;timestamp;P1;durP1;ratioP1;P2;durP2;ratioP2
77586;SDS011;66744;49.716;17.158;2023-08-01T00:01:50;3.15;;;1.95;;
77586;SDS011;66744;49.716;17.158;2023-08-01T00:04:59;5.15;;;1.98;;
77586;SDS011;66744;49.716;17.158;2023-08-01T00:08:11;4.72;;;1.95;;
77586;SDS011;66744;49.716;17.158;2023-08-01T00:11:15;4.72;;;2.03;;
77586;SDS011;66744;49.716;17.158;2023-08-01T00:14:28;4.65;;;1.65;;
77586;SDS011;66744;49.716;17.158;2023-08-01T00:17:38;2.85;;;1.60;;
77586;SDS011;66744;49.716;17.158;2023-08-01T00:20:42;2.92;;;1.60;;
77586;SDS011;66744;49.716;17.158;2023-08-01T00:23:46;9.88;;;2.05;;
77586;SDS011;66744;49.716;17.158;2023-08-01T00:26:50;3.55;;;1.52;;
77586;SDS011;66744;49.716;17.158;2023-08-01T00:29:52;5.88;;;2.20;;
77586;SDS011;66744;49.716;17.158;2023-08-01T00:33:06;5.10;;;1.65;;
77586;SDS011;66744;49.716;17.158;2023-08-01T00:36:09;5.93;;;2.15;;
77586;SDS011;66744;49.716;17.158;2023-08-01T00:39:12;4.70;;;1.95;;
77586;SDS011;66744;49.716;17.158;2023-08-01T00:42:16;3.13;;;1.60;;
77586;SDS011;66744;49.716;17.158;2023-08-01T00:45:17;6.20;;;1.83;;
77586;SDS011;66744;49.716;17.158;2023-08-01T00:48:27;4.10;;;1.70;;
77586;SDS011;66744;49.716;17.158;2023-08-01T00:51:40;4.68;;;1.90;;
77586;SDS011;66744;49.716;17.158;2023-08-01T00:54:42;6.90;;;1.77;;
77586;SDS011;66744;49.716;17.158;2023-08-01T00:57:47;2.63;;;1.48;;
77586;SDS011;66744;49.716;17.158;2023-08-01T01:00:48;2.88;;;1.33;;
77586;SDS011;66744;49.716;17.158;2023-08-01T01:03:52;3.05;;;1.73;;
77586;SDS011;66744;49.716;17.158;2023-08-01T01:07:00;3.20;;;1.70;;
77586;SDS011;66744;49.716;17.158;2023-08-01T01:10:07;3.55;;;2.08;;
77586;SDS011;66744;49.716;17.158;2023-08-01T01:13:10;6.05;;;2.90;;
77586;SDS011;66744;49.716;17.158;2023-08-01T01:16:17;4.93;;;1.75;;
77586;SDS011;66744;49.716;17.158;2023-08-01T01:19:18;2.97;;;1.80;;
77586;SDS011;66744;49.716;17.158;2023-08-01T01:22:22;3.47;;;2.03;;
77586;SDS011;66744;49.716;17.158;2023-08-01T01:25:33;4.07;;;2.13;;
77586;SDS011;66744;49.716;17.158;2023-08-01T01:28:40;4.32;;;1.90;;
77586;SDS011;66744;49.716;17.158;2023-08-01T01:31:45;2.67;;;1.83;;
77586;SDS011;66744;49.716;17.158;2023-08-01T01:34:48;4.50;;;1.75;;
77586;SDS011;66744;49.716;17.158;2023-08-01T01:37:52;4.50;;;2.03;;
77586;SDS011;66744;49.716;17.158;2023-08-01T01:40:54;4.30;;;1.52;;
77586;SDS011;66744;49.716;17.158;2023-08-01T01:43:58;7.35;;;2.00;;
77586;SDS011;66744;49.716;17.158;2023-08-01T01:47:00;3.30;;;1.60;;
77586;SDS011;66744;49.716;17.158;2023-08-01T01:50:04;5.20;;;2.50;;
77586;SDS011;66744;49.716;17.158;2023-08-01T01:53:08;5.20;;;1.90;;
77586;SDS011;66744;49.716;17.158;2023-08-01T01:56:10;3.20;;;1.98;;
77586;SDS011;66744;49.716;17.158;2023-08-01T01:59:12;4.78;;;1.73;;
77586;SDS011;66744;49.716;17.158;2023-08-01T02:02:15;13.15;;;2.20;;
77586;SDS011;66744;49.716;17.158;2023-08-01T02:05:16;5.90;;;2.03;;
77586;SDS011;66744;49.716;17.158;2023-08-01T02:08:18;3.08;;;1.92;;
77586;SDS011;66744;49.716;17.158;2023-08-01T02:11:19;4.00;;;1.90;;
77586;SDS011;66744;49.716;17.158;2023-08-01T02:14:22;4.32;;;1.85;;
77586;SDS011;66744;49.716;17.158;2023-08-01T02:17:23;4.22;;;2.03;;
77586;SDS011;66744;49.716;17.158;2023-08-01T02:20:25;4.85;;;2.00;;
77586;SDS011;66744;49.716;17.158;2023-08-01T02:23:36;4.20;;;2.05;;
77586;SDS011;66744;49.716;17.158;2023-08-01T02:26:41;3.63;;;1.83;;
77586;SDS011;66744;49.716;17.158;2023-08-01T02:29:45;4.18;;;2.10;;
77586;SDS011;66744;49.716;17.158;2023-08-01T02:35:52;4.05;;;1.90;;
77586;SDS011;66744;49.716;17.158;2023-08-01T02:39:02;5.03;;;1.67;;
77586;SDS011;66744;49.716;17.158;2023-08-01T02:42:04;5.32;;;1.83;;
77586;SDS011;66744;49.716;17.158;2023-08-01T02:45:09;2.83;;;1.55;;
77586;SDS011;66744;49.716;17.158;2023-08-01T02:48:10;5.45;;;2.13;;
77586;SDS011;66744;49.716;17.158;2023-08-01T02:51:12;4.20;;;1.75;;
77586;SDS011;66744;49.716;17.158;2023-08-01T02:54:16;3.70;;;2.00;;
77586;SDS011;66744;49.716;17.158;2023-08-01T02:57:18;2.60;;;1.95;;
77586;SDS011;66744;49.716;17.158;2023-08-01T03:00:22;4.10;;;2.30;;
77586;SDS011;66744;49.716;17.158;2023-08-01T03:03:24;2.65;;;1.98;;
77586;SDS011;66744;49.716;17.158;2023-08-01T03:06:28;5.03;;;1.80;;
77586;SDS011;66744;49.716;17.158;2023-08-01T03:09:32;4.20;;;2.00;;
77586;SDS011;66744;49.716;17.158;2023-08-01T03:12:37;3.72;;;1.90;;
77586;SDS011;66744;49.716;17.158;2023-08-01T03:19:07;8.07;;;2.20;;
77586;SDS011;66744;49.716;17.158;2023-08-01T03:22:09;4.20;;;2.17;;
77586;SDS011;66744;49.716;17.158;2023-08-01T03:25:14;5.20;;;1.52;;
77586;SDS011;66744;49.716;17.158;2023-08-01T03:32:17;4.35;;;1.90;;
77586;SDS011;66744;49.716;17.158;2023-08-01T03:35:19;5.30;;;2.03;;
77586;SDS011;66744;49.716;17.158;2023-08-01T03:38:20;4.25;;;1.85;;
77586;SDS011;66744;49.716;17.158;2023-08-01T03:41:22;8.63;;;3.35;;
77586;SDS011;66744;49.716;17.158;2023-08-01T03:44:26;3.70;;;1.95;;
77586;SDS011;66744;49.716;17.158;2023-08-01T03:47:27;4.70;;;2.45;;
77586;SDS011;66744;49.716;17.158;2023-08-01T03:50:29;2.53;;;1.67;;
77586;SDS011;66744;49.716;17.158;2023-08-01T03:53:35;8.55;;;2.50;;
77586;SDS011;66744;49.716;17.158;2023-08-01T03:56:39;5.43;;;2.33;;
77586;SDS011;66744;49.716;17.158;2023-08-01T03:59:44;7.45;;;2.08;;
77586;SDS011;66744;49.716;17.158;2023-08-01T04:02:49;5.25;;;2.83;;
77586;SDS011;66744;49.716;17.158;2023-08-01T04:05:55;4.65;;;1.98;;
77586;SDS011;66744;49.716;17.158;2023-08-01T04:08:56;6.65;;;2.10;;
77586;SDS011;66744;49.716;17.158;2023-08-01T04:12:01;4.05;;;2.67;;
77586;SDS011;66744;49.716;17.158;2023-08-01T04:15:03;3.92;;;2.30;;
77586;SDS011;66744;49.716;17.158;2023-08-01T04:18:08;7.57;;;2.05;;
77586;SDS011;66744;49.716;17.158;2023-08-01T04:21:09;6.05;;;2.10;;
77586;SDS011;66744;49.716;17.158;2023-08-01T04:24:13;10.30;;;2.22;;
77586;SDS011;66744;49.716;17.158;2023-08-01T04:27:14;5.00;;;2.22;;
77586;SDS011;66744;49.716;17.158;2023-08-01T04:30:16;2.88;;;1.70;;
77586;SDS011;66744;49.716;17.158;2023-08-01T04:33:26;2.50;;;2.00;;
77586;SDS011;66744;49.716;17.158;2023-08-01T04:36:27;3.85;;;2.08;;
77586;SDS011;66744;49.716;17.158;2023-08-01T04:39:34;4.03;;;2.25;;
77586;SDS011;66744;49.716;17.158;2023-08-01T04:42:36;3.25;;;2.35;;
77586;SDS011;66744;49.716;17.158;2023-08-01T04:45:37;6.28;;;2.30;;
77586;SDS011;66744;49.716;17.158;2023-08-01T04:48:43;2.72;;;1.95;;
77586;SDS011;66744;49.716;17.158;2023-08-01T04:51:50;5.82;;;2.60;;
77586;SDS011;66744;49.716;17.158;2023-08-01T04:54:56;1.92;;;1.63;;
77586;SDS011;66744;49.716;17.158;2023-08-01T04:58:01;4.10;;;2.40;;
77586;SDS011;66744;49.716;17.158;2023-08-01T05:01:02;3.97;;;2.22;;
77586;SDS011;66744;49.716;17.158;2023-08-01T05:04:06;3.78;;;2.35;;
77586;SDS011;66744;49.716;17.158;2023-08-01T05:07:08;3.75;;;2.47;;
77586;SDS011;66744;49.716;17.158;2023-08-01T05:10:09;3.80;;;2.30;;
77586;SDS011;66744;49.716;17.158;2023-08-01T05:13:13;5.18;;;2.70;;
77586;SDS011;66744;49.716;17.158;2023-08-01T05:16:15;4.22;;;2.75;;
77586;SDS011;66744;49.716;17.158;2023-08-01T05:19:26;5.28;;;2.03;;
77586;SDS011;66744;49.716;17.158;2023-08-01T05:22:28;3.20;;;1.58;;
77586;SDS011;66744;49.716;17.158;2023-08-01T05:25:37;4.60;;;2.60;;
77586;SDS011;66744;49.716;17.158;2023-08-01T05:28:41;3.40;;;2.33;;
77586;SDS011;66744;49.716;17.158;2023-08-01T05:32:01;3.90;;;2.33;;
77586;SDS011;66744;49.716;17.158;2023-08-01T05:35:37;4.72;;;2.30;;
77586;SDS011;66744;49.716;17.158;2023-08-01T05:38:49;3.85;;;2.10;;
77586;SDS011;66744;49.716;17.158;2023-08-01T05:42:25;4.35;;;2.40;;
77586;SDS011;66744;49.716;17.158;2023-08-01T05:45:35;4.57;;;2.70;;
77586;SDS011;66744;49.716;17.158;2023-08-01T05:48:50;5.55;;;2.78;;
77586;SDS011;66744;49.716;17.158;2023-08-01T05:52:00;3.92;;;2.40;;
77586;SDS011;66744;49.716;17.158;2023-08-01T05:55:05;5.00;;;2.40;;
77586;SDS011;66744;49.716;17.158;2023-08-01T05:58:07;5.35;;;2.88;;
77586;SDS011;66744;49.716;17.158;2023-08-01T06:01:10;8.02;;;2.88;;
77586;SDS011;66744;49.716;17.158;2023-08-01T06:04:15;5.85;;;3.03;;
77586;SDS011;66744;49.716;17.158;2023-08-01T06:07:20;6.13;;;3.13;;
77586;SDS011;66744;49.716;17.158;2023-08-01T06:10:34;3.28;;;2.60;;
77586;SDS011;66744;49.716;17.158;2023-08-01T06:13:45;4.68;;;2.47;;
77586;SDS011;66744;49.716;17.158;2023-08-01T06:16:47;6.13;;;3.13;;
77586;SDS011;66744;49.716;17.158;2023-08-01T06:19:48;5.20;;;2.72;;
77586;SDS011;66744;49.716;17.158;2023-08-01T06:23:19;5.63;;;3.05;;
77586;SDS011;66744;49.716;17.158;2023-08-01T06:26:32;4.15;;;2.80;;
77586;SDS011;66744;49.716;17.158;2023-08-01T06:29:36;7.25;;;3.20;;
77586;SDS011;66744;49.716;17.158;2023-08-01T06:32:49;5.25;;;3.25;;
77586;SDS011;66744;49.716;17.158;2023-08-01T06:35:58;5.35;;;2.78;;
77586;SDS011;66744;49.716;17.158;2023-08-01T06:39:14;5.93;;;2.60;;
77586;SDS011;66744;49.716;17.158;2023-08-01T06:42:36;4.65;;;2.88;;
77586;SDS011;66744;49.716;17.158;2023-08-01T06:46:31;4.80;;;2.95;;
77586;SDS011;66744;49.716;17.158;2023-08-01T06:49:46;4.47;;;2.83;;
77586;SDS011;66744;49.716;17.158;2023-08-01T06:52:57;6.45;;;3.53;;
77586;SDS011;66744;49.716;17.158;2023-08-01T06:56:05;5.43;;;2.83;;
77586;SDS011;66744;49.716;17.158;2023-08-01T06:59:09;3.33;;;2.63;;
77586;SDS011;66744;49.716;17.158;2023-08-01T07:02:10;7.43;;;3.33;;
77586;SDS011;66744;49.716;17.158;2023-08-01T07:05:20;5.75;;;3.42;;
77586;SDS011;66744;49.716;17.158;2023-08-01T07:08:32;4.90;;;3.20;;
77586;SDS011;66744;49.716;17.158;2023-08-01T07:11:39;5.28;;;3.22;;
77586;SDS011;66744;49.716;17.158;2023-08-01T07:14:43;5.68;;;3.83;;
77586;SDS011;66744;49.716;17.158;2023-08-01T07:17:45;5.93;;;3.42;;
77586;SDS011;66744;49.716;17.158;2023-08-01T07:20:58;6.18;;;4.18;;
77586;SDS011;66744;49.716;17.158;2023-08-01T07:24:06;5.07;;;3.33;;
77586;SDS011;66744;49.716;17.158;2023-08-01T07:27:22;5.63;;;3.20;;
77586;SDS011;66744;49.716;17.158;2023-08-01T07:30:33;7.55;;;4.53;;
77586;SDS011;66744;49.716;17.158;2023-08-01T07:33:52;6.35;;;4.03;;
77586;SDS011;66744;49.716;17.158;2023-08-01T07:37:00;4.90;;;4.00;;
77586;SDS011;66744;49.716;17.158;2023-08-01T07:43:39;6.07;;;3.03;;
77586;SDS011;66744;49.716;17.158;2023-08-01T07:46:49;6.90;;;4.32;;
77586;SDS011;66744;49.716;17.158;2023-08-01T08:00:01;6.55;;;3.83;;
77586;SDS011;66744;49.716;17.158;2023-08-01T08:03:43;6.25;;;4.07;;
77586;SDS011;66744;49.716;17.158;2023-08-01T08:06:50;6.10;;;4.40;;
77586;SDS011;66744;49.716;17.158;2023-08-01T08:10:12;6.35;;;3.80;;
77586;SDS011;66744;49.716;17.158;2023-08-01T08:21:23;5.63;;;3.45;;
77586;SDS011;66744;49.716;17.158;2023-08-01T08:24:44;5.65;;;3.42;;
77586;SDS011;66744;49.716;17.158;2023-08-01T08:27:55;5.85;;;3.25;;
77586;SDS011;66744;49.716;17.158;2023-08-01T08:31:20;7.28;;;3.30;;
77586;SDS011;66744;49.716;17.158;2023-08-01T08:34:46;4.57;;;3.47;;
77586;SDS011;66744;49.716;17.158;2023-08-01T08:37:57;6.28;;;3.20;;
77586;SDS011;66744;49.716;17.158;2023-08-01T08:41:25;5.50;;;3.60;;
77586;SDS011;66744;49.716;17.158;2023-08-01T08:44:34;8.02;;;2.53;;
77586;SDS011;66744;49.716;17.158;2023-08-01T08:47:55;4.35;;;2.92;;
77586;SDS011;66744;49.716;17.158;2023-08-01T08:51:47;4.45;;;2.90;;
77586;SDS011;66744;49.716;17.158;2023-08-01T08:55:13;4.35;;;2.55;;
77586;SDS011;66744;49.716;17.158;2023-08-01T08:58:16;5.53;;;2.95;;
77586;SDS011;66744;49.716;17.158;2023-08-01T09:01:24;3.25;;;2.58;;
77586;SDS011;66744;49.716;17.158;2023-08-01T09:04:50;4.72;;;2.50;;
77586;SDS011;66744;49.716;17.158;2023-08-01T09:08:04;6.50;;;3.15;;
77586;SDS011;66744;49.716;17.158;2023-08-01T09:11:18;4.78;;;2.80;;
77586;SDS011;66744;49.716;17.158;2023-08-01T09:14:26;4.03;;;2.80;;
77586;SDS011;66744;49.716;17.158;2023-08-01T09:17:48;5.15;;;3.08;;
77586;SDS011;66744;49.716;17.158;2023-08-01T09:20:51;5.97;;;3.45;;
77586;SDS011;66744;49.716;17.158;2023-08-01T09:23:55;7.45;;;3.85;;
77586;SDS011;66744;49.716;17.158;2023-08-01T09:27:08;5.88;;;3.25;;
77586;SDS011;66744;49.716;17.158;2023-08-01T09:30:13;6.03;;;3.70;;
77586;SDS011;66744;49.716;17.158;2023-08-01T09:33:18;5.32;;;3.25;;
77586;SDS011;66744;49.716;17.158;2023-08-01T09:36:22;6.82;;;3.63;;
77586;SDS011;66744;49.716;17.158;2023-08-01T09:39:24;5.47;;;3.38;;
77586;SDS011;66744;49.716;17.158;2023-08-01T09:42:26;5.40;;;3.17;;
77586;SDS011;66744;49.716;17.158;2023-08-01T09:45:53;5.57;;;3.00;;
77586;SDS011;66744;49.716;17.158;2023-08-01T09:48:55;4.68;;;3.53;;
77586;SDS011;66744;49.716;17.158;2023-08-01T09:51:56;4.07;;;2.97;;
77586;SDS011;66744;49.716;17.158;2023-08-01T09:54:58;4.03;;;2.42;;
77586;SDS011;66744;49.716;17.158;2023-08-01T09:58:01;4.85;;;2.60;;
77586;SDS011;66744;49.716;17.158;2023-08-01T10:02:08;5.50;;;2.80;;
77586;SDS011;66744;49.716;17.158;2023-08-01T10:05:16;4.75;;;3.00;;
77586;SDS011;66744;49.716;17.158;2023-08-01T10:08:20;3.63;;;2.70;;
77586;SDS011;66744;49.716;17.158;2023-08-01T10:11:23;4.38;;;2.58;;
77586;SDS011;66744;49.716;17.158;2023-08-01T10:14:25;6.20;;;3.22;;
77586;SDS011;66744;49.716;17.158;2023-08-01T10:17:29;5.10;;;3.28;;
77586;SDS011;66744;49.716;17.158;2023-08-01T10:20:37;7.43;;;3.63;;
77586;SDS011;66744;49.716;17.158;2023-08-01T10:23:40;5.50;;;3.25;;
77586;SDS011;66744;49.716;17.158;2023-08-01T10:26:44;8.40;;;3.50;;
77586;SDS011;66744;49.716;17.158;2023-08-01T10:30:00;7.03;;;3.63;;
77586;SDS011;66744;49.716;17.158;2023-08-01T10:33:10;5.13;;;3.72;;
77586;SDS011;66744;49.716;17.158;2023-08-01T10:36:21;5.45;;;3.67;;
77586;SDS011;66744;49.716;17.158;2023-08-01T10:39:25;7.28;;;3.53;;
77586;SDS011;66744;49.716;17.158;2023-08-01T10:42:39;5.20;;;3.65;;
77586;SDS011;66744;49.716;17.158;2023-08-01T10:45:42;4.90;;;3.80;;
77586;SDS011;66744;49.716;17.158;2023-08-01T10:48:50;6.80;;;3.85;;
77586;SDS011;66744;49.716;17.158;2023-08-01T10:51:58;6.13;;;3.70;;
77586;SDS011;66744;49.716;17.158;2023-08-01T10:55:05;7.65;;;4.07;;
77586;SDS011;66744;49.716;17.158;2023-08-01T10:58:11;5.18;;;3.67;;
77586;SDS011;66744;49.716;17.158;2023-08-01T11:01:13;4.85;;;3.67;;
77586;SDS011;66744;49.716;17.158;2023-08-01T11:04:22;6.82;;;3.67;;
77586;SDS011;66744;49.716;17.158;2023-08-01T11:07:27;5.95;;;3.65;;
77586;SDS011;66744;49.716;17.158;2023-08-01T11:10:29;6.13;;;3.80;;
77586;SDS011;66744;49.716;17.158;2023-08-01T11:13:40;7.20;;;3.42;;
77586;SDS011;66744;49.716;17.158;2023-08-01T11:16:42;5.97;;;3.95;;
77586;SDS011;66744;49.716;17.158;2023-08-01T11:19:45;6.75;;;3.83;;
77586;SDS011;66744;49.716;17.158;2023-08-01T11:22:51;5.38;;;3.40;;
77586;SDS011;66744;49.716;17.158;2023-08-01T11:29:43;8.40;;;4.53;;
77586;SDS011;66744;49.716;17.158;2023-08-01T11:32:47;6.88;;;3.90;;
77586;SDS011;66744;49.716;17.158;2023-08-01T11:35:58;5.78;;;3.63;;
77586;SDS011;66744;49.716;17.158;2023-08-01T11:39:10;6.18;;;3.85;;
77586;SDS011;66744;49.716;17.158;2023-08-01T11:42:33;3.85;;;2.75;;
77586;SDS011;66744;49.716;17.158;2023-08-01T11:46:33;5.75;;;3.83;;
77586;SDS011;66744;49.716;17.158;2023-08-01T11:49:59;5.25;;;3.75;;
77586;SDS011;66744;49.716;17.158;2023-08-01T11:53:21;4.75;;;3.22;;
77586;SDS011;66744;49.716;17.158;2023-08-01T12:00:21;4.65;;;3.38;;
77586;SDS011;66744;49.716;17.158;2023-08-01T12:04:29;6.80;;;3.83;;
77586;SDS011;66744;49.716;17.158;2023-08-01T12:07:54;4.78;;;3.13;;
77586;SDS011;66744;49.716;17.158;2023-08-01T12:11:35;5.05;;;2.75;;
77586;SDS011;66744;49.716;17.158;2023-08-01T12:15:13;4.65;;;3.00;;
77586;SDS011;66744;49.716;17.158;2023-08-01T12:18:46;4.50;;;2.80;;
77586;SDS011;66744;49.716;17.158;2023-08-01T12:22:06;5.68;;;3.40;;
77586;SDS011;66744;49.716;17.158;2023-08-01T12:25:30;10.40;;;3.15;;
77586;SDS011;66744;49.716;17.158;2023-08-01T12:28:39;6.47;;;3.95;;
77586;SDS011;66744;49.716;17.158;2023-08-01T12:31:44;5.80;;;3.50;;
77586;SDS011;66744;49.716;17.158;2023-08-01T12:38:10;5.80;;;3.45;;
77586;SDS011;66744;49.716;17.158;2023-08-01T12:41:36;4.57;;;3.13;;
77586;SDS011;66744;49.716;17.158;2023-08-01T12:45:18;4.40;;;2.90;;
77586;SDS011;66744;49.716;17.158;2023-08-01T12:52:44;3.60;;;2.40;;
77586;SDS011;66744;49.716;17.158;2023-08-01T12:56:07;8.20;;;3.22;;
77586;SDS011;66744;49.716;17.158;2023-08-01T13:04:15;5.18;;;3.08;;
77586;SDS011;66744;49.716;17.158;2023-08-01T13:07:31;3.83;;;2.78;;
77586;SDS011;66744;49.716;17.158;2023-08-01T13:10:59;3.53;;;2.75;;
77586;SDS011;66744;49.716;17.158;2023-08-01T13:18:39;4.95;;;3.13;;
77586;SDS011;66744;49.716;17.158;2023-08-01T13:21:50;5.50;;;2.83;;
77586;SDS011;66744;49.716;17.158;2023-08-01T13:24:52;3.58;;;2.83;;
77586;SDS011;66744;49.716;17.158;2023-08-01T13:31:44;4.45;;;2.80;;
77586;SDS011;66744;49.716;17.158;2023-08-01T13:34:53;3.88;;;2.60;;
77586;SDS011;66744;49.716;17.158;2023-08-01T13:37:55;5.00;;;2.67;;
77586;SDS011;66744;49.716;17.158;2023-08-01T13:41:07;5.38;;;3.05;;
77586;SDS011;66744;49.716;17.158;2023-08-01T13:44:11;4.78;;;3.22;;
77586;SDS011;66744;49.716;17.158;2023-08-01T13:47:19;4.43;;;2.88;;
77586;SDS011;66744;49.716;17.158;2023-08-01T13:50:20;5.70;;;3.17;;
77586;SDS011;66744;49.716;17.158;2023-08-01T13:53:28;4.28;;;2.63;;
77586;SDS011;66744;49.716;17.158;2023-08-01T13:56:31;3.88;;;3.20;;
77586;SDS011;66744;49.716;17.158;2023-08-01T13:59:43;4.68;;;3.15;;
77586;SDS011;66744;49.716;17.158;2023-08-01T14:03:33;4.85;;;3.50;;
77586;SDS011;66744;49.716;17.158;2023-08-01T14:06:41;5.68;;;3.03;;
77586;SDS011;66744;49.716;17.158;2023-08-01T14:09:49;5.20;;;3.13;;
77586;SDS011;66744;49.716;17.158;2023-08-01T14:12:50;3.67;;;2.75;;
77586;SDS011;66744;49.716;17.158;2023-08-01T14:15:53;8.80;;;3.63;;
77586;SDS011;66744;49.716;17.158;2023-08-01T14:18:55;4.03;;;2.78;;
77586;SDS011;66744;49.716;17.158;2023-08-01T14:21:56;4.13;;;3.17;;
77586;SDS011;66744;49.716;17.158;2023-08-01T14:25:06;5.82;;;3.65;;
77586;SDS011;66744;49.716;17.158;2023-08-01T14:28:08;5.68;;;3.25;;
77586;SDS011;66744;49.716;17.158;2023-08-01T14:31:21;3.63;;;2.67;;
77586;SDS011;66744;49.716;17.158;2023-08-01T14:34:43;5.90;;;3.38;;
77586;SDS011;66744;49.716;17.158;2023-08-01T14:37:44;6.90;;;2.88;;
77586;SDS011;66744;49.716;17.158;2023-08-01T14:40:52;4.90;;;2.95;;
77586;SDS011;66744;49.716;17.158;2023-08-01T14:43:54;4.90;;;2.95;;
77586;SDS011;66744;49.716;17.158;2023-08-01T14:46:55;5.43;;;2.95;;
77586;SDS011;66744;49.716;17.158;2023-08-01T14:49:57;5.40;;;3.08;;
77586;SDS011;66744;49.716;17.158;2023-08-01T14:53:05;5.05;;;3.35;;
77586;SDS011;66744;49.716;17.158;2023-08-01T14:56:09;5.45;;;3.58;;
77586;SDS011;66744;49.716;17.158;2023-08-01T14:59:12;4.18;;;2.80;;
77586;SDS011;66744;49.716;17.158;2023-08-01T15:02:15;4.75;;;3.05;;
77586;SDS011;66744;49.716;17.158;2023-08-01T15:05:17;3.63;;;2.72;;
77586;SDS011;66744;49.716;17.158;2023-08-01T15:08:19;4.97;;;3.20;;
77586;SDS011;66744;49.716;17.158;2023-08-01T15:11:29;4.97;;;2.40;;
77586;SDS011;66744;49.716;17.158;2023-08-01T15:14:32;6.78;;;3.30;;
77586;SDS011;66744;49.716;17.158;2023-08-01T15:17:37;4.93;;;3.08;;
77586;SDS011;66744;49.716;17.158;2023-08-01T15:20:47;4.57;;;3.03;;
77586;SDS011;66744;49.716;17.158;2023-08-01T15:23:51;5.45;;;2.90;;
77586;SDS011;66744;49.716;17.158;2023-08-01T15:26:54;5.57;;;3.50;;
77586;SDS011;66744;49.716;17.158;2023-08-01T15:29:56;5.55;;;2.55;;
77586;SDS011;66744;49.716;17.158;2023-08-01T15:32:57;5.05;;;2.95;;
77586;SDS011;66744;49.716;17.158;2023-08-01T15:36:09;5.60;;;2.90;;
77586;SDS011;66744;49.716;17.158;2023-08-01T15:39:31;4.95;;;2.80;;
77586;SDS011;66744;49.716;17.158;2023-08-01T15:42:35;6.10;;;3.30;;
77586;SDS011;66744;49.716;17.158;2023-08-01T15:45:42;3.88;;;2.80;;
77586;SDS011;66744;49.716;17.158;2023-08-01T15:48:45;4.97;;;3.17;;
77586;SDS011;66744;49.716;17.158;2023-08-01T15:51:47;4.15;;;3.08;;
77586;SDS011;66744;49.716;17.158;2023-08-01T15:54:49;4.78;;;3.25;;
77586;SDS011;66744;49.716;17.158;2023-08-01T15:57:57;8.23;;;3.25;;
77586;SDS011;66744;49.716;17.158;2023-08-01T16:01:18;3.85;;;2.50;;
77586;SDS011;66744;49.716;17.158;2023-08-01T16:04:29;4.95;;;3.00;;
77586;SDS011;66744;49.716;17.158;2023-08-01T16:07:37;4.70;;;2.78;;
77586;SDS011;66744;49.716;17.158;2023-08-01T16:10:42;4.78;;;2.58;;
77586;SDS011;66744;49.716;17.158;2023-08-01T16:13:51;6.50;;;3.63;;
77586;SDS011;66744;49.716;17.158;2023-08-01T16:16:55;5.32;;;3.40;;
77586;SDS011;66744;49.716;17.158;2023-08-01T16:20:09;4.97;;;2.88;;
77586;SDS011;66744;49.716;17.158;2023-08-01T16:23:11;5.78;;;3.08;;
77586;SDS011;66744;49.716;17.158;2023-08-01T16:26:17;4.45;;;2.80;;
77586;SDS011;66744;49.716;17.158;2023-08-01T16:29:21;5.20;;;3.00;;
77586;SDS011;66744;49.716;17.158;2023-08-01T16:32:30;7.90;;;3.80;;
77586;SDS011;66744;49.716;17.158;2023-08-01T16:35:45;5.72;;;3.20;;
77586;SDS011;66744;49.716;17.158;2023-08-01T16:38:54;5.68;;;3.05;;
77586;SDS011;66744;49.716;17.158;2023-08-01T16:41:57;7.85;;;3.25;;
77586;SDS011;66744;49.716;17.158;2023-08-01T16:50:23;6.93;;;3.05;;
77586;SDS011;66744;49.716;17.158;2023-08-01T16:53:27;7.88;;;3.58;;
77586;SDS011;66744;49.716;17.158;2023-08-01T16:56:28;5.80;;;3.03;;
77586;SDS011;66744;49.716;17.158;2023-08-01T16:59:32;4.80;;;3.78;;
77586;SDS011;66744;49.716;17.158;2023-08-01T17:02:36;5.22;;;3.63;;
77586;SDS011;66744;49.716;17.158;2023-08-01T17:05:37;5.95;;;3.38;;
77586;SDS011;66744;49.716;17.158;2023-08-01T17:08:48;5.53;;;3.08;;
77586;SDS011;66744;49.716;17.158;2023-08-01T17:11:50;4.85;;;3.35;;
77586;SDS011;66744;49.716;17.158;2023-08-01T17:14:52;4.63;;;3.45;;
77586;SDS011;66744;49.716;17.158;2023-08-01T17:18:07;4.65;;;3.42;;
77586;SDS011;66744;49.716;17.158;2023-08-01T17:21:21;8.40;;;3.38;;
77586;SDS011;66744;49.716;17.158;2023-08-01T17:25:01;5.45;;;3.35;;
77586;SDS011;66744;49.716;17.158;2023-08-01T17:28:18;4.38;;;3.13;;
77586;SDS011;66744;49.716;17.158;2023-08-01T17:31:20;5.60;;;3.70;;
77586;SDS011;66744;49.716;17.158;2023-08-01T17:34:24;7.13;;;3.67;;
77586;SDS011;66744;49.716;17.158;2023-08-01T17:37:34;7.28;;;3.28;;
77586;SDS011;66744;49.716;17.158;2023-08-01T17:40:42;6.93;;;3.35;;
77586;SDS011;66744;49.716;17.158;2023-08-01T17:43:45;6.93;;;3.97;;
77586;SDS011;66744;49.716;17.158;2023-08-01T17:46:49;5.57;;;3.60;;
77586;SDS011;66744;49.716;17.158;2023-08-01T17:49:53;6.63;;;3.22;;
77586;SDS011;66744;49.716;17.158;2023-08-01T17:52:57;4.05;;;3.13;;
77586;SDS011;66744;49.716;17.158;2023-08-01T17:56:00;7.35;;;3.83;;
77586;SDS011;66744;49.716;17.158;2023-08-01T17:59:05;6.70;;;3.50;;
77586;SDS011;66744;49.716;17.158;2023-08-01T18:02:10;4.10;;;3.08;;
77586;SDS011;66744;49.716;17.158;2023-08-01T18:05:36;4.68;;;2.88;;
77586;SDS011;66744;49.716;17.158;2023-08-01T18:08:49;4.63;;;2.75;;
77586;SDS011;66744;49.716;17.158;2023-08-01T18:11:51;5.57;;;3.67;;
77586;SDS011;66744;49.716;17.158;2023-08-01T18:14:53;4.70;;;3.25;;
77586;SDS011;66744;49.716;17.158;2023-08-01T18:17:55;4.45;;;3.25;;
77586;SDS011;66744;49.716;17.158;2023-08-01T18:21:18;5.07;;;2.95;;
77586;SDS011;66744;49.716;17.158;2023-08-01T18:24:27;3.83;;;2.75;;
77586;SDS011;66744;49.716;17.158;2023-08-01T18:27:32;6.18;;;3.08;;
77586;SDS011;66744;49.716;17.158;2023-08-01T18:30:37;5.65;;;3.28;;
77586;SDS011;66744;49.716;17.158;2023-08-01T18:33:39;4.35;;;2.92;;
77586;SDS011;66744;49.716;17.158;2023-08-01T18:36:56;6.32;;;3.08;;
77586;SDS011;66744;49.716;17.158;2023-08-01T18:40:01;5.80;;;3.50;;
77586;SDS011;66744;49.716;17.158;2023-08-01T18:43:06;5.30;;;3.05;;
77586;SDS011;66744;49.716;17.158;2023-08-01T18:46:12;6.15;;;3.78;;
77586;SDS011;66744;49.716;17.158;2023-08-01T18:49:18;6.25;;;3.30;;
77586;SDS011;66744;49.716;17.158;2023-08-01T18:52:56;4.75;;;2.42;;
77586;SDS011;66744;49.716;17.158;2023-08-01T18:56:10;3.72;;;2.92;;
77586;SDS011;66744;49.716;17.158;2023-08-01T18:59:22;6.38;;;3.38;;
77586;SDS011;66744;49.716;17.158;2023-08-01T19:02:24;5.32;;;3.55;;
77586;SDS011;66744;49.716;17.158;2023-08-01T19:05:39;6.53;;;3.17;;
77586;SDS011;66744;49.716;17.158;2023-08-01T19:08:41;4.95;;;3.20;;
77586;SDS011;66744;49.716;17.158;2023-08-01T19:11:48;4.18;;;3.15;;
77586;SDS011;66744;49.716;17.158;2023-08-01T19:14:50;4.05;;;3.15;;
77586;SDS011;66744;49.716;17.158;2023-08-01T19:17:58;5.50;;;3.40;;
77586;SDS011;66744;49.716;17.158;2023-08-01T19:21:01;6.15;;;3.78;;
77586;SDS011;66744;49.716;17.158;2023-08-01T19:24:40;6.65;;;2.92;;
77586;SDS011;66744;49.716;17.158;2023-08-01T19:28:14;4.85;;;2.80;;
77586;SDS011;66744;49.716;17.158;2023-08-01T19:31:16;5.05;;;3.53;;
77586;SDS011;66744;49.716;17.158;2023-08-01T19:34:32;6.85;;;3.42;;
77586;SDS011;66744;49.716;17.158;2023-08-01T19:38:06;4.22;;;3.40;;
77586;SDS011;66744;49.716;17.158;2023-08-01T19:41:36;6.95;;;3.72;;
77586;SDS011;66744;49.716;17.158;2023-08-01T19:45:51;7.13;;;3.97;;
77586;SDS011;66744;49.716;17.158;2023-08-01T19:48:54;7.57;;;3.40;;